Bom Sucesso, Brazil
Current Conditions -  °F | °C
As of 8:00 PM on Tuesday 27 Jan 2015 (Local Time) from SBJU Reporting Station
Few Clouds Few Clouds  
Wind Chill: 90°   Ceiling: Unl
Heat Index: 91°   Visibility: 6mi
Dew Point: 64°   Wind: 3mph
Humidity: 43%   Direction: 190°S
Pressure: 29.94"   Gusts: NA
Location:  6.45°S, 37.93°W
Report Text: SBJU 272300Z 19003KT 9999 FEW022 32/18 Q1014
Loading
Personal Weather Stations






























Interactive Weather Map New forecast layout! Learn more

10-Day Weather Forecast

Advertisements
Track Severe Weather on mobile